Time;durP1;ratioP1;P1;durP2;ratioP2;P2;SDS_P1;SDS_P2;PMS_P1;PMS_P2;Temp;Humidity;BMP_temperature;BMP_pressure;BME280_temperature;BME280_humidity;BME280_pressure;Samples;Min_cycle;Max_cycle;Signal;HPM_P1;HPM_P2
2024/04/06 00:02:04;;;;;;;5.55;2.03;;;14.80;99.90;;;;;;5052167;28;20033;-84
2024/04/06 00:04:31;;;;;;;3.60;1.95;;;14.80;99.90;;;;;;5082058;28;20079;-84
2024/04/06 00:06:56;;;;;;;2.28;1.55;;;14.80;99.90;;;;;;5050647;28;20538;-84
2024/04/06 00:09:22;;;;;;;3.58;1.90;;;14.60;99.90;;;;;;5051588;28;20017;-85
2024/04/06 00:11:48;;;;;;;9.82;1.83;;;14.60;99.90;;;;;;5050559;28;20031;-84
2024/04/06 00:14:17;;;;;;;3.63;1.77;;;14.50;99.90;;;;;;5051086;28;20025;-84
2024/04/06 00:16:43;;;;;;;4.25;2.00;;;14.50;99.90;;;;;;5048952;28;20021;-84
2024/04/06 00:19:08;;;;;;;3.47;1.90;;;14.60;99.90;;;;;;5048796;28;20051;-84
2024/04/06 00:21:34;;;;;;;6.85;2.28;;;14.60;99.90;;;;;;5082336;28;20078;-84
2024/04/06 00:24:00;;;;;;;3.53;1.98;;;14.50;99.90;;;;;;5051919;28;20017;-84
2024/04/06 00:26:25;;;;;;;5.03;1.80;;;14.50;99.90;;;;;;5081179;28;20092;-84
2024/04/06 00:28:51;;;;;;;2.28;1.60;;;14.40;99.90;;;;;;5048249;28;20025;-84
2024/04/06 00:31:16;;;;;;;4.50;1.60;;;14.30;99.90;;;;;;5050624;28;20109;-83
2024/04/06 00:33:42;;;;;;;3.78;2.00;;;14.20;99.90;;;;;;5050746;28;20013;-84
2024/04/06 00:36:07;;;;;;;3.92;1.70;;;14.00;99.90;;;;;;5049298;28;20036;-84
2024/04/06 00:38:33;;;;;;;7.80;2.17;;;13.90;99.90;;;;;;5086327;28;20021;-83
2024/04/06 00:40:58;;;;;;;5.05;1.90;;;13.80;99.90;;;;;;5078557;28;20013;-85
2024/04/06 00:43:24;;;;;;;6.78;1.92;;;13.60;99.90;;;;;;5050614;28;20032;-84
2024/04/06 00:45:49;;;;;;;3.33;2.05;;;13.60;99.90;;;;;;5052032;28;20021;-85
2024/04/06 00:48:15;;;;;;;16.00;2.25;;;13.70;99.90;;;;;;5049761;28;20167;-84
2024/04/06 00:50:41;;;;;;;2.83;1.42;;;13.60;99.90;;;;;;5050371;28;20020;-84
2024/04/06 00:53:06;;;;;;;8.68;2.05;;;13.50;99.90;;;;;;5050446;28;20025;-84
2024/04/06 00:55:32;;;;;;;4.20;1.58;;;13.30;99.90;;;;;;5049661;28;20037;-85
2024/04/06 00:57:58;;;;;;;9.80;2.38;;;13.40;99.90;;;;;;5049394;28;20021;-84
2024/04/06 01:00:24;;;;;;;6.80;1.85;;;13.30;99.90;;;;;;5051309;28;20103;-84
2024/04/06 01:02:49;;;;;;;3.58;1.95;;;13.30;99.90;;;;;;5051561;28;20482;-85
2024/04/06 01:05:15;;;;;;;5.38;2.03;;;13.20;99.90;;;;;;5079132;28;20116;-85
2024/04/06 01:07:44;;;;;;;3.35;1.58;;;13.10;99.90;;;;;;5048312;28;20025;-85
2024/04/06 01:10:10;;;;;;;12.25;2.30;;;13.10;99.90;;;;;;5051346;28;20021;-83
2024/04/06 01:12:35;;;;;;;2.60;1.77;;;13.20;99.90;;;;;;5048473;28;20032;-85
2024/04/06 01:15:01;;;;;;;3.25;1.60;;;13.20;99.90;;;;;;5040453;28;20017;-86
2024/04/06 01:17:27;;;;;;;3.97;1.77;;;13.10;99.90;;;;;;5049630;28;20017;-84
2024/04/06 01:19:53;;;;;;;2.42;1.60;;;13.30;99.90;;;;;;5050449;28;20028;-85
2024/04/06 01:22:18;;;;;;;2.58;1.70;;;13.30;99.90;;;;;;5077818;28;20029;-84
2024/04/06 01:24:44;;;;;;;6.88;2.10;;;13.30;99.90;;;;;;5049708;28;20023;-84
2024/04/06 01:27:09;;;;;;;7.05;2.20;;;13.10;99.90;;;;;;5049449;28;20028;-84
2024/04/06 01:29:35;;;;;;;7.80;2.20;;;13.00;99.90;;;;;;5078298;28;20120;-84
2024/04/06 01:32:01;;;;;;;5.43;1.88;;;12.90;99.90;;;;;;5049130;28;20035;-84
2024/04/06 01:34:26;;;;;;;4.00;1.90;;;12.90;99.90;;;;;;5083052;28;20033;-84
2024/04/06 01:36:52;;;;;;;3.92;1.60;;;13.00;99.90;;;;;;5049233;28;20064;-85
2024/04/06 01:39:17;;;;;;;6.00;1.40;;;12.90;99.90;;;;;;5084052;28;20032;-83
2024/04/06 01:41:48;;;;;;;4.95;2.20;;;12.90;99.90;;;;;;5049170;28;20009;-84
2024/04/06 01:44:13;;;;;;;;;;;12.90;99.90;;;;;;5044772;28;20056;-85
2024/04/06 01:46:39;;;;;;;3.78;1.80;;;12.80;99.90;;;;;;5047461;28;19950;-84
2024/04/06 01:49:04;;;;;;;8.82;2.35;;;12.80;99.90;;;;;;5049105;28;20028;-84
2024/04/06 01:51:30;;;;;;;3.65;1.67;;;12.80;99.90;;;;;;5078000;28;20029;-84
2024/04/06 01:53:56;;;;;;;3.15;1.77;;;12.90;99.90;;;;;;5049180;28;20025;-84
2024/04/06 01:56:21;;;;;;;2.72;1.80;;;12.70;99.90;;;;;;5049189;28;20048;-83
2024/04/06 01:58:47;;;;;;;4.90;2.08;;;12.80;99.90;;;;;;5075480;28;20123;-84
2024/04/06 02:01:13;;;;;;;4.13;1.80;;;12.90;99.90;;;;;;5046283;28;20561;-84
2024/04/06 02:03:39;;;;;;;5.88;1.48;;;13.00;99.90;;;;;;5049031;28;20024;-84
2024/04/06 02:06:06;;;;;;;4.10;1.48;;;12.90;99.90;;;;;;5048613;28;20052;-85
2024/04/06 02:08:31;;;;;;;10.48;1.73;;;12.70;99.90;;;;;;5046176;28;20047;-84
2024/04/06 02:10:57;;;;;;;4.10;2.00;;;12.60;99.90;;;;;;5048271;28;20024;-84
2024/04/06 02:13:22;;;;;;;5.15;2.35;;;12.50;99.90;;;;;;5048383;28;20047;-83
2024/04/06 02:15:48;;;;;;;5.15;2.85;;;12.40;99.90;;;;;;5049023;28;20036;-85
2024/04/06 02:18:13;;;;;;;4.75;1.90;;;12.40;99.90;;;;;;5080404;28;20036;-84
2024/04/06 02:20:40;;;;;;;5.30;2.20;;;12.30;99.90;;;;;;5081378;28;20028;-85
2024/04/06 02:23:06;;;;;;;3.42;2.20;;;12.20;99.90;;;;;;5049031;28;20029;-83
2024/04/06 02:25:32;;;;;;;8.82;2.60;;;12.30;99.90;;;;;;5046027;28;20027;-84
2024/04/06 02:27:58;;;;;;;5.78;2.25;;;12.30;99.90;;;;;;5080960;28;20028;-84
2024/04/06 02:30:24;;;;;;;11.32;2.58;;;12.10;99.90;;;;;;5044827;28;20037;-84
2024/04/06 02:32:49;;;;;;;10.85;2.67;;;12.00;99.90;;;;;;5048772;28;20078;-84
2024/04/06 02:35:15;;;;;;;3.88;2.17;;;12.00;99.90;;;;;;5049585;28;20033;-84
2024/04/06 02:37:43;;;;;;;12.55;2.70;;;12.00;99.90;;;;;;5084680;28;20399;-83
2024/04/06 02:40:09;;;;;;;17.85;3.13;;;12.00;99.90;;;;;;5041494;28;20017;-84
2024/04/06 02:42:35;;;;;;;8.82;2.17;;;11.90;99.90;;;;;;5048195;28;20371;-84
2024/04/06 02:45:00;;;;;;;7.38;2.10;;;11.80;99.90;;;;;;5079435;28;20547;-84
2024/04/06 02:47:27;;;;;;;11.13;3.17;;;11.70;99.90;;;;;;5075541;28;20155;-85
2024/04/06 02:49:52;;;;;;;20.45;4.25;;;11.70;99.90;;;;;;5046204;28;20040;-85
2024/04/06 02:52:18;;;;;;;13.70;2.80;;;11.70;99.90;;;;;;5048225;28;20463;-84
2024/04/06 02:54:43;;;;;;;11.07;2.53;;;11.50;99.90;;;;;;5047897;28;20033;-84
2024/04/06 02:57:09;;;;;;;8.05;2.30;;;11.60;99.90;;;;;;5047433;28;20528;-84
2024/04/06 02:59:35;;;;;;;4.80;1.95;;;11.80;99.90;;;;;;5080599;28;20021;-84
2024/04/06 03:02:00;;;;;;;4.80;2.03;;;11.90;99.90;;;;;;5048069;28;20013;-85
2024/04/06 03:04:26;;;;;;;10.98;2.80;;;11.80;99.90;;;;;;5044687;28;20106;-84
2024/04/06 03:06:51;;;;;;;8.13;2.50;;;11.60;99.90;;;;;;5081385;28;20021;-84
2024/04/06 03:09:18;;;;;;;11.60;2.10;;;11.70;99.90;;;;;;5047620;28;20576;-85
2024/04/06 03:11:45;;;;;;;11.68;2.22;;;11.60;99.90;;;;;;5045885;28;20021;-84
2024/04/06 03:14:10;;;;;;;7.25;2.85;;;11.70;99.90;;;;;;5049381;28;20104;-84
2024/04/06 03:16:36;;;;;;;3.28;1.70;;;11.80;99.90;;;;;;5077647;28;20115;-85
2024/04/06 03:19:02;;;;;;;5.53;2.25;;;11.90;99.90;;;;;;5043737;28;20025;-84
2024/04/06 03:21:28;;;;;;;7.35;2.20;;;11.90;99.90;;;;;;5048212;28;20459;-84
2024/04/06 03:23:54;;;;;;;4.10;2.00;;;11.80;99.90;;;;;;5045787;28;20013;-84
2024/04/06 03:26:19;;;;;;;5.00;2.40;;;11.80;99.90;;;;;;5072591;28;20534;-86
2024/04/06 03:28:45;;;;;;;6.30;1.75;;;11.70;99.90;;;;;;5047565;28;20021;-83
2024/04/06 03:31:10;;;;;;;4.78;1.65;;;11.80;99.90;;;;;;5047652;28;20051;-83
2024/04/06 03:33:36;;;;;;;8.18;2.22;;;11.90;99.90;;;;;;5045549;28;20029;-84
2024/04/06 03:36:01;;;;;;;11.00;2.00;;;11.80;99.90;;;;;;5047993;28;20047;-85
2024/04/06 03:38:27;;;;;;;2.03;1.60;;;12.00;99.90;;;;;;5043680;28;20074;-85
2024/04/06 03:40:52;;;;;;;3.38;1.60;;;12.10;99.90;;;;;;5047584;28;20012;-84
2024/04/06 03:43:18;;;;;;;13.02;1.83;;;12.00;99.90;;;;;;5044519;28;20020;-84
2024/04/06 03:45:46;;;;;;;5.45;2.13;;;12.00;99.90;;;;;;5047819;28;20178;-83
2024/04/06 03:48:12;;;;;;;6.45;2.08;;;12.00;99.90;;;;;;5045615;28;20029;-84
2024/04/06 03:50:37;;;;;;;4.53;2.00;;;12.00;99.90;;;;;;5073443;28;20503;-83
2024/04/06 03:53:03;;;;;;;2.58;1.77;;;12.10;99.90;;;;;;5050712;28;20497;-83
2024/04/06 03:55:28;;;;;;;8.35;2.10;;;12.10;99.90;;;;;;5051924;28;20445;-85
2024/04/06 03:57:54;;;;;;;4.93;1.95;;;12.10;99.90;;;;;;5047814;28;20025;-84
2024/04/06 04:00:20;;;;;;;3.67;1.70;;;12.20;99.90;;;;;;5082196;28;20021;-85
2024/04/06 04:02:46;;;;;;;6.95;1.90;;;12.20;99.90;;;;;;5081285;28;20048;-84
2024/04/06 04:05:11;;;;;;;9.68;2.33;;;12.30;99.90;;;;;;5050866;28;20487;-85
2024/04/06 04:07:37;;;;;;;10.18;1.77;;;12.20;99.90;;;;;;5050738;28;20402;-84
2024/04/06 04:10:03;;;;;;;6.50;1.90;;;12.50;99.90;;;;;;5051956;28;20546;-84
2024/04/06 04:12:29;;;;;;;6.82;2.05;;;12.70;99.90;;;;;;5048593;28;20028;-84
2024/04/06 04:14:59;;;;;;;6.78;1.95;;;12.70;99.90;;;;;;5046953;28;20055;-84
2024/04/06 04:17:25;;;;;;;4.90;2.20;;;12.40;99.90;;;;;;5051008;28;20017;-84
2024/04/06 04:19:50;;;;;;;5.65;2.17;;;12.20;99.90;;;;;;5081032;28;20337;-85
2024/04/06 04:22:16;;;;;;;3.97;2.13;;;12.20;99.90;;;;;;5050382;28;20013;-84
2024/04/06 04:24:41;;;;;;;3.55;1.90;;;12.20;99.90;;;;;;5049641;28;20040;-85
2024/04/06 04:27:07;;;;;;;4.80;1.88;;;12.10;99.90;;;;;;5078755;28;20014;-85
2024/04/06 04:29:33;;;;;;;3.53;1.73;;;12.40;99.90;;;;;;5076561;28;20469;-83
2024/04/06 04:31:58;;;;;;;3.38;1.88;;;12.70;99.90;;;;;;5049989;28;20035;-84
2024/04/06 04:34:24;;;;;;;4.55;1.98;;;12.50;99.90;;;;;;5050591;28;20025;-84
2024/04/06 04:36:50;;;;;;;5.53;2.00;;;12.20;99.90;;;;;;5048103;28;20060;-85
2024/04/06 04:39:15;;;;;;;6.13;2.72;;;12.00;99.90;;;;;;5050714;28;20079;-84
2024/04/06 04:41:41;;;;;;;5.70;2.33;;;11.70;99.90;;;;;;5081721;28;20025;-84
2024/04/06 04:44:07;;;;;;;6.25;2.47;;;11.40;99.90;;;;;;5048560;28;20070;-83
2024/04/06 04:46:32;;;;;;;10.15;2.70;;;11.30;99.90;;;;;;5049665;28;20021;-85
2024/04/06 04:49:01;;;;;;;3.72;2.20;;;11.20;99.90;;;;;;5083032;28;20025;-85
2024/04/06 04:51:27;;;;;;;8.48;2.67;;;11.10;99.90;;;;;;5057855;28;20025;-85
2024/04/06 04:53:54;;;;;;;9.02;2.60;;;11.10;99.90;;;;;;5046184;28;20495;-85
2024/04/06 04:56:20;;;;;;;4.20;2.15;;;11.20;99.90;;;;;;5050422;28;20036;-84
2024/04/06 04:58:47;;;;;;;4.57;2.20;;;11.10;99.90;;;;;;5075965;28;20034;-84
2024/04/06 05:01:13;;;;;;;10.80;2.08;;;10.90;99.90;;;;;;5050346;28;20433;-84
2024/04/06 05:03:38;;;;;;;4.60;2.13;;;10.80;99.90;;;;;;5046625;28;20025;-85
2024/04/06 05:06:04;;;;;;;5.93;2.05;;;10.70;99.90;;;;;;5049518;28;20032;-84
2024/04/06 05:08:30;;;;;;;4.10;1.52;;;10.60;99.90;;;;;;5090179;28;20028;-84
2024/04/06 05:10:56;;;;;;;2.95;1.70;;;10.60;99.90;;;;;;5093140;28;20483;-85
2024/04/06 05:13:21;;;;;;;10.93;1.67;;;10.60;99.90;;;;;;5059358;28;20024;-85
2024/04/06 05:15:53;;;;;;;11.38;2.08;;;10.80;99.90;;;;;;5055440;28;20040;-84
2024/04/06 05:18:21;;;;;;;2.17;1.75;;;10.90;99.90;;;;;;5055534;28;20028;-84
2024/04/06 05:20:55;;;;;;;3.45;1.58;;;10.80;99.90;;;;;;5060330;28;20021;-84
2024/04/06 05:23:22;;;;;;;8.70;1.63;;;10.90;99.90;;;;;;5056923;28;20047;-85
2024/04/06 05:25:49;;;;;;;4.68;1.50;;;11.00;99.90;;;;;;5079047;28;20033;-84
2024/04/06 05:28:19;;;;;;;8.05;1.90;;;11.10;99.90;;;;;;5049447;28;20433;-85
2024/04/06 05:30:45;;;;;;;6.60;2.22;;;11.10;99.90;;;;;;5076530;28;20034;-86
2024/04/06 05:33:13;;;;;;;4.03;2.03;;;11.10;99.90;;;;;;5075531;28;20525;-85
2024/04/06 05:35:40;;;;;;;3.72;1.80;;;11.10;99.90;;;;;;5047386;28;20068;-84
2024/04/06 05:38:06;;;;;;;5.65;1.58;;;11.30;99.90;;;;;;5047037;28;20072;-84
2024/04/06 05:40:31;;;;;;;4.38;1.77;;;11.40;99.90;;;;;;5043988;28;20025;-83
2024/04/06 05:42:57;;;;;;;6.75;2.10;;;11.40;99.90;;;;;;5049380;28;20021;-85
2024/04/06 05:45:23;;;;;;;4.05;1.65;;;11.40;99.90;;;;;;5049270;28;20051;-84
2024/04/06 05:47:50;;;;;;;4.47;1.50;;;11.50;99.90;;;;;;5047165;28;20112;-84
2024/04/06 05:50:15;;;;;;;12.73;2.25;;;11.50;99.90;;;;;;5083085;28;20022;-85
2024/04/06 05:52:41;;;;;;;3.53;1.60;;;11.60;99.90;;;;;;5047106;28;20032;-85
2024/04/06 05:55:06;;;;;;;5.03;1.90;;;11.90;99.90;;;;;;5048767;28;20032;-84
2024/04/06 05:57:32;;;;;;;6.28;2.33;;;12.20;99.90;;;;;;5043353;28;20028;-84
2024/04/06 05:59:57;;;;;;;8.35;1.88;;;12.10;99.90;;;;;;5074608;28;20489;-84
2024/04/06 06:02:23;;;;;;;6.57;2.13;;;11.90;99.90;;;;;;5048816;28;20035;-84
2024/04/06 06:04:49;;;;;;;8.13;2.10;;;11.70;99.90;;;;;;5048611;28;20505;-84
2024/04/06 06:07:14;;;;;;;7.55;2.17;;;11.70;99.90;;;;;;5048574;28;20541;-85
2024/04/06 06:09:40;;;;;;;4.15;2.00;;;11.70;99.90;;;;;;5048702;28;20040;-86
2024/04/06 06:12:05;;;;;;;16.65;2.50;;;11.70;99.90;;;;;;5042984;28;20517;-84
2024/04/06 06:14:31;;;;;;;7.03;2.10;;;11.70;99.90;;;;;;5047965;28;20519;-85
2024/04/06 06:16:56;;;;;;;4.40;1.95;;;11.80;99.90;;;;;;5073637;28;20517;-85
2024/04/06 06:19:22;;;;;;;5.60;2.55;;;11.70;99.90;;;;;;5045506;28;20017;-85
2024/04/06 06:21:47;;;;;;;8.00;2.38;;;11.90;99.90;;;;;;5047522;28;20020;-84
2024/04/06 06:24:13;;;;;;;6.50;1.90;;;11.90;99.90;;;;;;5042180;28;20023;-85
2024/04/06 06:26:39;;;;;;;5.13;1.88;;;11.90;99.90;;;;;;5046060;28;20017;-85
2024/04/06 06:29:04;;;;;;;13.00;2.17;;;11.90;99.90;;;;;;5047871;28;20029;-84
2024/04/06 06:31:30;;;;;;;5.18;2.25;;;11.80;99.90;;;;;;5047624;28;20032;-85
2024/04/06 06:33:57;;;;;;;14.98;2.53;;;11.90;99.90;;;;;;5072751;28;20453;-86
2024/04/06 06:36:23;;;;;;;13.25;2.33;;;12.10;99.90;;;;;;5047845;28;20495;-84
2024/04/06 06:38:49;;;;;;;11.77;2.20;;;12.20;99.90;;;;;;5077542;28;20075;-84
2024/04/06 06:41:14;;;;;;;3.00;1.83;;;12.30;99.90;;;;;;5047874;28;20017;-85
2024/04/06 06:43:40;;;;;;;8.63;2.08;;;12.40;99.90;;;;;;5044887;28;20483;-84
2024/04/06 06:46:05;;;;;;;7.65;2.70;;;12.30;99.90;;;;;;5046236;28;20033;-84
2024/04/06 06:48:31;;;;;;;12.13;2.35;;;12.50;99.90;;;;;;5044444;28;20028;-86
2024/04/06 06:50:57;;;;;;;2.92;2.00;;;12.60;99.90;;;;;;5039990;28;20037;-84
2024/04/06 06:53:22;;;;;;;6.10;2.13;;;12.50;99.90;;;;;;5048488;28;20029;-85
2024/04/06 06:55:48;;;;;;;5.53;2.20;;;12.70;99.90;;;;;;5073729;28;20033;-84
2024/04/06 06:58:13;;;;;;;7.45;2.30;;;12.80;99.90;;;;;;5042894;28;20021;-84
2024/04/06 07:00:45;;;;;;;11.73;2.03;;;12.90;99.90;;;;;;5047989;28;20025;-85
2024/04/06 07:03:10;;;;;;;6.80;2.72;;;13.10;99.90;;;;;;5071648;28;20029;-85
2024/04/06 07:05:36;;;;;;;6.05;2.40;;;13.10;99.90;;;;;;5042238;28;20039;-85
2024/04/06 07:08:02;;;;;;;6.45;2.10;;;13.20;99.90;;;;;;5047182;28;20457;-84
2024/04/06 07:10:27;;;;;;;7.47;2.55;;;13.30;99.90;;;;;;5046926;28;20368;-84
2024/04/06 07:12:53;;;;;;;7.07;1.85;;;13.50;99.90;;;;;;5070284;28;20484;-84
2024/04/06 07:15:18;;;;;;;3.00;2.10;;;13.50;99.90;;;;;;5042037;28;20036;-86
2024/04/06 07:17:44;;;;;;;2.60;1.70;;;13.60;99.90;;;;;;5047305;28;20021;-86
2024/04/06 07:20:10;;;;;;;2.63;1.77;;;13.70;99.90;;;;;;5046475;28;20044;-85
2024/04/06 07:22:37;;;;;;;12.30;2.53;;;13.80;99.90;;;;;;5072191;28;20025;-85
2024/04/06 07:25:03;;;;;;;7.30;1.90;;;13.80;99.90;;;;;;5046709;28;20418;-85
2024/04/06 07:27:28;;;;;;;3.88;2.10;;;13.80;99.90;;;;;;5050122;28;20119;-85
2024/04/06 07:29:54;;;;;;;3.85;1.67;;;13.90;99.90;;;;;;5050955;28;20128;-84
2024/04/06 07:32:20;;;;;;;3.50;1.80;;;14.00;99.90;;;;;;5052041;28;20100;-87
2024/04/06 07:34:45;;;;;;;3.40;1.63;;;14.10;99.90;;;;;;5048307;28;20029;-85
2024/04/06 07:37:11;;;;;;;5.32;2.42;;;14.00;99.90;;;;;;5050736;28;21665;-85
2024/04/06 07:39:36;;;;;;;7.75;2.85;;;14.20;99.90;;;;;;5048621;28;20020;-87
2024/04/06 07:42:02;;;;;;;4.18;2.10;;;14.30;99.90;;;;;;5051601;28;20025;-85
2024/04/06 07:44:28;;;;;;;6.10;1.70;;;14.20;99.90;;;;;;5046928;28;20017;-85
2024/04/06 07:46:53;;;;;;;2.53;1.75;;;14.20;99.90;;;;;;5051449;28;20075;-85
2024/04/06 07:49:19;;;;;;;2.45;1.83;;;14.30;99.90;;;;;;5049634;28;20028;-85
2024/04/06 07:51:44;;;;;;;5.30;2.08;;;14.50;99.90;;;;;;5046053;28;20051;-84
2024/04/06 07:54:10;;;;;;;3.40;1.88;;;14.60;99.90;;;;;;5050614;28;20025;-85
2024/04/06 07:56:35;;;;;;;4.68;1.63;;;14.60;99.90;;;;;;5051632;28;20037;-85
2024/04/06 07:59:01;;;;;;;8.05;1.60;;;14.70;99.90;;;;;;5045398;28;20030;-85
2024/04/06 08:01:26;;;;;;;4.13;1.90;;;14.80;99.90;;;;;;5047239;28;20017;-85
2024/04/06 08:03:53;;;;;;;4.10;1.90;;;15.00;99.90;;;;;;5049174;28;20120;-84
2024/04/06 08:06:19;;;;;;;3.95;1.70;;;15.20;99.90;;;;;;5064988;28;20021;-88
2024/04/06 08:08:45;;;;;;;5.43;1.70;;;15.40;99.90;;;;;;5043366;28;20029;-84
2024/04/06 08:11:11;;;;;;;4.20;1.70;;;15.50;99.90;;;;;;5049900;28;20025;-84
2024/04/06 08:13:37;;;;;;;4.18;1.80;;;15.60;99.90;;;;;;5047014;28;20104;-86
2024/04/06 08:16:03;;;;;;;7.65;1.60;;;15.80;99.90;;;;;;5043004;28;20108;-84
2024/04/06 08:18:28;;;;;;;4.65;1.75;;;15.80;99.90;;;;;;5050817;28;20036;-85
2024/04/06 08:20:54;;;;;;;7.70;1.90;;;16.00;99.90;;;;;;5047792;28;20487;-86
2024/04/06 08:23:19;;;;;;;4.22;1.95;;;16.00;99.90;;;;;;5049617;28;20017;-85
2024/04/06 08:25:45;;;;;;;2.65;1.88;;;16.00;99.90;;;;;;5049816;28;20029;-85
2024/04/06 08:28:11;;;;;;;3.00;2.10;;;15.90;99.90;;;;;;5080834;28;20060;-85
2024/04/06 08:30:38;;;;;;;4.20;1.92;;;16.10;99.90;;;;;;5049071;28;20029;-84
2024/04/06 08:33:05;;;;;;;5.13;2.13;;;16.00;99.90;;;;;;5048294;28;20029;-85
2024/04/06 08:35:33;;;;;;;5.20;1.98;;;16.00;99.90;;;;;;5050677;28;20025;-86
2024/04/06 08:38:00;;;;;;;3.00;1.98;;;16.30;99.90;;;;;;5076580;28;20495;-85
2024/04/06 08:40:25;;;;;;;6.13;1.85;;;16.60;99.90;;;;;;5077006;28;20035;-85
2024/04/06 08:42:55;;;;;;;4.90;1.60;;;16.60;99.90;;;;;;5049964;28;20025;-85
2024/04/06 08:45:21;;;;;;;3.50;1.92;;;16.80;99.90;;;;;;5047153;28;20013;-85
2024/04/06 08:47:47;;;;;;;9.80;2.33;;;16.80;99.90;;;;;;5048000;28;20084;-85
2024/04/06 08:50:13;;;;;;;3.53;1.88;;;16.80;99.90;;;;;;5049724;28;20033;-86
2024/04/06 08:52:39;;;;;;;6.25;2.05;;;16.90;99.90;;;;;;5050290;28;20053;-86
2024/04/06 08:55:06;;;;;;;6.18;1.88;;;17.00;99.90;;;;;;5077304;28;20160;-85
2024/04/06 08:57:34;;;;;;;4.78;1.80;;;17.10;99.90;;;;;;5079489;28;20021;-85
2024/04/06 09:00:06;;;;;;;7.55;2.22;;;17.40;99.90;;;;;;5078416;28;20025;-85
2024/04/06 09:02:33;;;;;;;2.78;1.80;;;17.50;99.90;;;;;;5050170;28;20025;-85
2024/04/06 09:04:58;;;;;;;3.65;1.92;;;17.50;99.90;;;;;;5049438;28;20037;-85
2024/04/06 09:07:24;;;;;;;3.65;1.80;;;17.50;99.90;;;;;;5049489;28;20072;-84
2024/04/06 09:09:50;;;;;;;3.88;2.00;;;17.30;99.90;;;;;;5044423;28;20033;-86
2024/04/06 09:12:17;;;;;;;4.45;1.48;;;17.10;99.90;;;;;;5049743;28;20033;-86
2024/04/06 09:14:45;;;;;;;2.95;1.60;;;16.90;99.90;;;;;;5048614;28;20060;-85
2024/04/06 09:17:10;;;;;;;4.00;1.92;;;17.10;99.90;;;;;;5044123;28;20022;-86
2024/04/06 09:19:36;;;;;;;8.10;1.75;;;17.20;99.90;;;;;;5043370;28;20120;-87
2024/04/06 09:22:02;;;;;;;4.80;1.70;;;17.30;99.90;;;;;;5080506;28;20479;-87
2024/04/06 09:24:28;;;;;;;4.10;1.50;;;17.50;99.90;;;;;;5049568;28;20109;-81
2024/04/06 09:27:23;;;;;;;4.30;1.80;;;17.80;99.90;;;;;;5080438;28;20025;-88
2024/04/06 09:29:48;;;;;;;3.50;1.80;;;18.00;99.90;;;;;;4951545;28;20131;-85
2024/04/06 09:32:18;;;;;;;3.92;2.00;;;17.90;99.90;;;;;;4949961;28;20557;-86
2024/04/06 09:34:51;;;;;;;6.68;2.10;;;18.00;99.90;;;;;;4970149;28;20118;-86
2024/04/06 09:37:26;;;;;;;2.38;1.50;;;17.90;99.90;;;;;;4970290;28;20046;-79
2024/04/06 09:39:52;;;;;;;2.78;1.55;;;18.00;99.90;;;;;;4966603;28;20126;-79
2024/04/06 09:42:19;;;;;;;3.55;1.60;;;17.90;99.90;;;;;;4947242;28;20114;-79
2024/04/06 09:44:45;;;;;;;3.95;1.77;;;17.80;99.90;;;;;;4972123;28;20027;-80
2024/04/06 09:47:12;;;;;;;4.63;1.58;;;17.70;99.90;;;;;;4967881;28;20118;-80
2024/04/06 09:49:39;;;;;;;2.08;1.63;;;18.00;99.90;;;;;;4965169;28;20065;-80
2024/04/06 09:52:05;;;;;;;4.85;1.40;;;18.10;99.90;;;;;;4969407;28;20027;-79
2024/04/06 09:54:31;;;;;;;2.42;1.50;;;18.40;99.90;;;;;;4967262;28;20126;-79
2024/04/06 09:56:58;;;;;;;3.83;1.95;;;18.50;99.90;;;;;;4968037;28;20050;-79
2024/04/06 09:59:27;;;;;;;3.63;1.50;;;18.90;99.90;;;;;;4968813;28;20118;-79
2024/04/06 10:01:54;;;;;;;3.38;1.73;;;18.90;99.90;;;;;;4953899;28;20054;-79
2024/04/06 10:04:24;;;;;;;2.50;1.60;;;18.90;99.90;;;;;;4969051;28;20035;-79
2024/04/06 10:06:56;;;;;;;2.75;1.85;;;18.90;99.90;;;;;;5029407;28;20090;-79
2024/04/06 10:09:35;;;;;;;2.92;1.50;;;18.90;99.90;;;;;;5047770;28;20371;-81
2024/04/06 10:12:06;;;;;;;3.67;1.98;;;19.20;99.90;;;;;;5043885;28;20027;-81
2024/04/06 10:14:43;;;;;;;10.52;1.90;;;19.50;99.90;;;;;;5047006;28;20040;-81
2024/04/06 10:17:12;;;;;;;10.23;1.98;;;19.40;99.90;;;;;;5079479;28;20023;-79
2024/04/06 10:19:43;;;;;;;1.75;1.63;;;19.30;99.90;;;;;;5048738;28;20121;-80
2024/04/06 10:22:09;;;;;;;2.28;1.60;;;19.40;99.90;;;;;;5076380;28;20061;-79
2024/04/06 10:24:35;;;;;;;2.90;1.80;;;19.60;99.90;;;;;;5049040;28;20055;-79
2024/04/06 10:27:01;;;;;;;6.35;1.80;;;19.50;99.90;;;;;;5044408;28;20483;-80
2024/04/06 10:29:36;;;;;;;2.70;1.60;;;19.40;99.90;;;;;;5048389;28;20021;-79
2024/04/06 10:32:02;;;;;;;2.65;1.85;;;19.50;99.90;;;;;;5043951;28;20035;-81
2024/04/06 10:34:27;;;;;;;7.25;1.63;;;19.50;99.90;;;;;;5046265;28;20108;-79
2024/04/06 10:36:53;;;;;;;5.10;1.80;;;19.50;99.90;;;;;;5043584;28;20033;-79
2024/04/06 10:39:18;;;;;;;3.42;1.90;;;19.60;99.90;;;;;;5047905;28;20017;-80
2024/04/06 10:41:44;;;;;;;3.00;1.60;;;19.60;99.90;;;;;;5047248;28;20067;-79
2024/04/06 10:44:10;;;;;;;4.13;2.00;;;19.30;99.90;;;;;;5040638;28;20025;-79
2024/04/06 10:46:36;;;;;;;6.47;2.17;;;19.50;99.90;;;;;;5049833;28;20055;-80
2024/04/06 10:49:11;;;;;;;8.88;2.35;;;19.40;99.90;;;;;;5078387;28;20071;-78
2024/04/06 10:51:37;;;;;;;7.55;2.00;;;19.40;99.90;;;;;;5048027;28;20491;-79
2024/04/06 10:54:04;;;;;;;3.10;1.50;;;19.50;99.90;;;;;;5046387;28;20021;-81
2024/04/06 10:56:30;;;;;;;3.58;1.73;;;19.60;99.90;;;;;;5048029;28;20115;-81
2024/04/06 10:58:55;;;;;;;4.97;2.20;;;19.60;99.90;;;;;;5045086;28;20076;-79
2024/04/06 11:01:23;;;;;;;2.33;1.63;;;19.70;99.90;;;;;;5044171;28;20569;-79
2024/04/06 11:03:49;;;;;;;3.88;1.55;;;19.40;99.90;;;;;;5048398;28;20483;-79
2024/04/06 11:06:15;;;;;;;5.90;2.00;;;19.50;99.90;;;;;;5077049;28;20641;-80
2024/04/06 11:08:41;;;;;;;2.53;1.33;;;19.40;99.90;;;;;;5078733;28;20087;-83
2024/04/06 11:11:12;;;;;;;2.65;1.50;;;19.30;99.90;;;;;;5079946;28;20016;-79
2024/04/06 11:13:38;;;;;;;1.60;1.40;;;19.50;99.90;;;;;;5044967;28;20017;-81
2024/04/06 11:16:04;;;;;;;4.35;1.45;;;19.30;99.90;;;;;;5046549;28;20590;-80
2024/04/06 11:18:39;;;;;;;2.55;1.55;;;19.30;99.90;;;;;;5047228;28;20120;-80
2024/04/06 11:21:12;;;;;;;5.50;1.60;;;19.50;99.90;;;;;;5076422;28;20367;-80
2024/04/06 11:23:38;;;;;;;2.33;1.40;;;19.80;99.90;;;;;;5047606;28;20024;-80
2024/04/06 11:26:04;;;;;;;4.93;2.08;;;19.90;99.90;;;;;;5048389;28;20013;-80
2024/04/06 11:28:30;;;;;;;4.07;1.77;;;19.90;99.90;;;;;;5046875;28;20028;-80
2024/04/06 11:30:57;;;;;;;4.35;1.85;;;19.90;99.90;;;;;;5041747;28;20033;-79
2024/04/06 11:33:23;;;;;;;13.45;1.60;;;19.90;99.90;;;;;;5047391;28;20116;-80
2024/04/06 11:35:48;;;;;;;2.92;1.58;;;20.30;99.90;;;;;;5047800;28;20447;-80
2024/04/06 11:38:14;;;;;;;5.68;1.50;;;20.10;99.90;;;;;;5048110;28;20029;-81
2024/04/06 11:40:46;;;;;;;2.22;1.50;;;20.30;99.90;;;;;;5048869;28;20021;-81
2024/04/06 11:43:15;;;;;;;2.42;1.48;;;20.50;99.90;;;;;;5045990;28;20067;-80
2024/04/06 11:45:41;;;;;;;4.05;1.60;;;20.40;99.90;;;;;;5044630;28;20022;-80
2024/04/06 11:48:07;;;;;;;4.93;1.75;;;20.70;99.90;;;;;;5045755;28;20511;-80
2024/04/06 11:50:32;;;;;;;6.82;1.52;;;20.50;99.90;;;;;;5077869;28;20032;-82
2024/04/06 11:52:58;;;;;;;1.92;1.45;;;20.30;99.90;;;;;;5045709;28;20021;-81
2024/04/06 11:55:23;;;;;;;4.57;1.73;;;20.50;99.90;;;;;;5047968;28;20086;-79
2024/04/06 11:57:49;;;;;;;2.17;1.40;;;20.50;99.90;;;;;;5048218;28;20881;-79
2024/04/06 12:00:15;;;;;;;2.63;1.20;;;20.40;99.90;;;;;;5046223;28;20537;-79
2024/04/06 12:02:41;;;;;;;4.20;1.30;;;20.40;99.70;;;;;;5046182;28;20508;-79
2024/04/06 12:05:07;;;;;;;1.38;1.10;;;20.50;99.90;;;;;;5046834;28;20025;-80
2024/04/06 12:07:33;;;;;;;19.40;1.52;;;20.50;99.90;;;;;;5046020;28;20383;-79
2024/04/06 12:09:59;;;;;;;20.65;2.42;;;20.50;99.90;;;;;;5047680;28;20025;-78
2024/04/06 12:12:24;;;;;;;56.53;3.65;;;20.60;99.90;;;;;;5080842;28;20048;-78
2024/04/06 12:14:50;;;;;;;23.45;2.42;;;20.80;98.50;;;;;;5050016;28;20013;-79
2024/04/06 12:17:26;;;;;;;115.45;8.20;;;20.80;97.50;;;;;;5049090;28;20017;-80
2024/04/06 12:19:52;;;;;;;55.60;4.25;;;20.80;99.90;;;;;;5051876;28;20028;-80
2024/04/06 12:22:19;;;;;;;183.93;8.63;;;20.60;96.70;;;;;;5049358;28;20013;-79
2024/04/06 12:24:44;;;;;;;44.05;3.53;;;20.40;99.30;;;;;;5050266;28;20494;-78
2024/04/06 12:27:11;;;;;;;27.02;2.60;;;20.30;98.60;;;;;;5049445;28;20025;-79
2024/04/06 12:29:37;;;;;;;48.65;2.83;;;20.40;97.00;;;;;;5050935;28;20033;-78
2024/04/06 12:32:03;;;;;;;25.73;2.78;;;20.30;97.10;;;;;;5049629;28;20040;-79
2024/04/06 12:34:29;;;;;;;47.17;4.15;;;20.70;96.00;;;;;;5050552;28;20031;-78
2024/04/06 12:37:00;;;;;;;56.00;4.07;;;20.80;93.10;;;;;;5051719;28;20033;-79
2024/04/06 12:39:25;;;;;;;50.17;4.47;;;20.70;95.40;;;;;;5049223;28;20574;-79
2024/04/06 12:41:51;;;;;;;28.13;3.97;;;20.90;96.00;;;;;;5049622;28;20105;-79